sensor_id;sensor_type;location;lat;lon;timestamp;temperature;humidity
39621;DHT22;25309;48.686;9.170;2023-12-20T00:02:18;6.40;99.90
39621;DHT22;25309;48.686;9.170;2023-12-20T00:04:45;6.40;99.90
39621;DHT22;25309;48.686;9.170;2023-12-20T00:07:14;6.50;99.90
39621;DHT22;25309;48.686;9.170;2023-12-20T00:09:41;6.50;99.90
39621;DHT22;25309;48.686;9.170;2023-12-20T00:12:08;6.50;99.90
39621;DHT22;25309;48.686;9.170;2023-12-20T00:14:35;6.50;99.90
39621;DHT22;25309;48.686;9.170;2023-12-20T00:17:03;6.50;99.90
39621;DHT22;25309;48.686;9.170;2023-12-20T00:19:30;6.50;99.90
39621;DHT22;25309;48.686;9.170;2023-12-20T00:21:57;6.60;99.90
39621;DHT22;25309;48.686;9.170;2023-12-20T00:24:27;6.60;99.90
39621;DHT22;25309;48.686;9.170;2023-12-20T00:26:54;6.60;99.90
39621;DHT22;25309;48.686;9.170;2023-12-20T00:29:21;6.60;99.90
39621;DHT22;25309;48.686;9.170;2023-12-20T00:31:48;6.60;99.90
39621;DHT22;25309;48.686;9.170;2023-12-20T00:34:15;6.60;99.90
39621;DHT22;25309;48.686;9.170;2023-12-20T00:36:42;6.60;99.90
39621;DHT22;25309;48.686;9.170;2023-12-20T00:39:09;6.60;99.90
39621;DHT22;25309;48.686;9.170;2023-12-20T00:41:37;6.60;99.90
39621;DHT22;25309;48.686;9.170;2023-12-20T00:44:04;6.50;99.90
39621;DHT22;25309;48.686;9.170;2023-12-20T00:46:31;6.50;99.90
39621;DHT22;25309;48.686;9.170;2023-12-20T00:48:58;6.50;99.90
39621;DHT22;25309;48.686;9.170;2023-12-20T00:51:25;6.50;99.90
39621;DHT22;25309;48.686;9.170;2023-12-20T00:53:52;6.50;99.90
39621;DHT22;25309;48.686;9.170;2023-12-20T00:56:21;6.50;99.90
39621;DHT22;25309;48.686;9.170;2023-12-20T00:58:50;6.50;99.90
39621;DHT22;25309;48.686;9.170;2023-12-20T01:01:17;6.40;99.90
39621;DHT22;25309;48.686;9.170;2023-12-20T01:03:44;6.40;99.90
39621;DHT22;25309;48.686;9.170;2023-12-20T01:06:11;6.40;99.90
39621;DHT22;25309;48.686;9.170;2023-12-20T01:08:38;6.40;99.90
39621;DHT22;25309;48.686;9.170;2023-12-20T01:11:05;6.40;99.90
39621;DHT22;25309;48.686;9.170;2023-12-20T01:13:32;6.30;99.90
39621;DHT22;25309;48.686;9.170;2023-12-20T01:16:01;6.30;99.90
39621;DHT22;25309;48.686;9.170;2023-12-20T01:18:28;6.20;99.90
39621;DHT22;25309;48.686;9.170;2023-12-20T01:20:55;6.20;99.90
39621;DHT22;25309;48.686;9.170;2023-12-20T01:23:22;6.10;99.90
39621;DHT22;25309;48.686;9.170;2023-12-20T01:25:49;6.00;99.90
39621;DHT22;25309;48.686;9.170;2023-12-20T01:28:16;6.00;99.90
39621;DHT22;25309;48.686;9.170;2023-12-20T01:30:44;5.90;99.90
39621;DHT22;25309;48.686;9.170;2023-12-20T01:33:12;5.90;99.90
39621;DHT22;25309;48.686;9.170;2023-12-20T01:35:39;5.80;99.90
39621;DHT22;25309;48.686;9.170;2023-12-20T01:38:06;5.80;99.90
39621;DHT22;25309;48.686;9.170;2023-12-20T01:40:33;5.70;99.90
39621;DHT22;25309;48.686;9.170;2023-12-20T01:43:01;5.60;99.90
39621;DHT22;25309;48.686;9.170;2023-12-20T01:45:28;5.60;99.90
39621;DHT22;25309;48.686;9.170;2023-12-20T01:47:57;5.60;99.90
39621;DHT22;25309;48.686;9.170;2023-12-20T01:50:26;5.60;99.90
39621;DHT22;25309;48.686;9.170;2023-12-20T01:52:55;5.60;99.90
39621;DHT22;25309;48.686;9.170;2023-12-20T01:55:25;5.60;99.90
39621;DHT22;25309;48.686;9.170;2023-12-20T01:57:52;5.60;99.90
39621;DHT22;25309;48.686;9.170;2023-12-20T02:00:19;5.60;99.90
39621;DHT22;25309;48.686;9.170;2023-12-20T02:02:50;5.60;99.90
39621;DHT22;25309;48.686;9.170;2023-12-20T02:05:19;5.60;99.90
39621;DHT22;25309;48.686;9.170;2023-12-20T02:07:48;5.60;99.90
39621;DHT22;25309;48.686;9.170;2023-12-20T02:10:15;5.60;99.90
39621;DHT22;25309;48.686;9.170;2023-12-20T02:12:43;5.60;99.90
39621;DHT22;25309;48.686;9.170;2023-12-20T02:15:10;5.60;99.90
39621;DHT22;25309;48.686;9.170;2023-12-20T02:17:38;5.60;99.90
39621;DHT22;25309;48.686;9.170;2023-12-20T02:20:07;5.60;99.90
39621;DHT22;25309;48.686;9.170;2023-12-20T02:22:36;5.60;99.90
39621;DHT22;25309;48.686;9.170;2023-12-20T02:25:03;5.60;99.90
39621;DHT22;25309;48.686;9.170;2023-12-20T02:27:30;5.60;99.90
39621;DHT22;25309;48.686;9.170;2023-12-20T02:29:57;5.60;99.90
39621;DHT22;25309;48.686;9.170;2023-12-20T02:32:25;5.60;99.90
39621;DHT22;25309;48.686;9.170;2023-12-20T02:34:53;5.60;99.90
39621;DHT22;25309;48.686;9.170;2023-12-20T02:37:20;5.60;99.90
39621;DHT22;25309;48.686;9.170;2023-12-20T02:39:49;5.60;99.90
39621;DHT22;25309;48.686;9.170;2023-12-20T02:42:16;5.60;99.90
39621;DHT22;25309;48.686;9.170;2023-12-20T02:44:43;5.60;99.90
39621;DHT22;25309;48.686;9.170;2023-12-20T02:47:10;5.70;99.90
39621;DHT22;25309;48.686;9.170;2023-12-20T02:49:37;5.70;99.90
39621;DHT22;25309;48.686;9.170;2023-12-20T02:52:04;5.60;99.90
39621;DHT22;25309;48.686;9.170;2023-12-20T02:54:32;5.70;99.90
39621;DHT22;25309;48.686;9.170;2023-12-20T02:57:00;5.70;99.90
39621;DHT22;25309;48.686;9.170;2023-12-20T02:59:27;5.70;99.90
39621;DHT22;25309;48.686;9.170;2023-12-20T03:01:54;5.70;99.90
39621;DHT22;25309;48.686;9.170;2023-12-20T03:04:21;5.70;99.90
39621;DHT22;25309;48.686;9.170;2023-12-20T03:06:48;5.70;99.90
39621;DHT22;25309;48.686;9.170;2023-12-20T03:09:15;5.70;99.90
39621;DHT22;25309;48.686;9.170;2023-12-20T03:11:42;5.70;99.90
39621;DHT22;25309;48.686;9.170;2023-12-20T03:14:10;5.70;99.90
39621;DHT22;25309;48.686;9.170;2023-12-20T03:16:37;5.70;99.90
39621;DHT22;25309;48.686;9.170;2023-12-20T03:19:04;5.70;99.90
39621;DHT22;25309;48.686;9.170;2023-12-20T03:21:31;5.70;99.90
39621;DHT22;25309;48.686;9.170;2023-12-20T03:23:58;5.70;99.90
39621;DHT22;25309;48.686;9.170;2023-12-20T03:26:25;5.70;99.90
39621;DHT22;25309;48.686;9.170;2023-12-20T03:28:52;5.70;99.90
39621;DHT22;25309;48.686;9.170;2023-12-20T03:31:20;5.70;99.90
39621;DHT22;25309;48.686;9.170;2023-12-20T03:33:47;5.70;99.90
39621;DHT22;25309;48.686;9.170;2023-12-20T03:36:15;5.70;99.90
39621;DHT22;25309;48.686;9.170;2023-12-20T03:38:42;5.70;99.90
39621;DHT22;25309;48.686;9.170;2023-12-20T03:41:09;5.70;99.90
39621;DHT22;25309;48.686;9.170;2023-12-20T03:43:36;5.70;99.90
39621;DHT22;25309;48.686;9.170;2023-12-20T03:46:03;5.70;99.90
39621;DHT22;25309;48.686;9.170;2023-12-20T03:48:32;5.70;99.90
39621;DHT22;25309;48.686;9.170;2023-12-20T03:50:59;5.70;99.90
39621;DHT22;25309;48.686;9.170;2023-12-20T03:53:26;5.70;99.90
39621;DHT22;25309;48.686;9.170;2023-12-20T03:55:53;5.70;99.90
39621;DHT22;25309;48.686;9.170;2023-12-20T03:58:20;5.70;99.90
39621;DHT22;25309;48.686;9.170;2023-12-20T04:00:47;5.70;99.90
39621;DHT22;25309;48.686;9.170;2023-12-20T04:03:14;5.70;99.90
39621;DHT22;25309;48.686;9.170;2023-12-20T04:05:42;5.60;99.90
39621;DHT22;25309;48.686;9.170;2023-12-20T04:08:11;5.60;99.90
39621;DHT22;25309;48.686;9.170;2023-12-20T04:10:38;5.60;99.90
39621;DHT22;25309;48.686;9.170;2023-12-20T04:13:05;5.60;99.90
39621;DHT22;25309;48.686;9.170;2023-12-20T04:15:32;5.60;99.90
39621;DHT22;25309;48.686;9.170;2023-12-20T04:17:59;5.50;99.90
39621;DHT22;25309;48.686;9.170;2023-12-20T04:20:26;5.50;99.90
39621;DHT22;25309;48.686;9.170;2023-12-20T04:22:54;5.50;99.90
39621;DHT22;25309;48.686;9.170;2023-12-20T04:25:21;5.50;99.90
39621;DHT22;25309;48.686;9.170;2023-12-20T04:27:48;5.50;99.90
39621;DHT22;25309;48.686;9.170;2023-12-20T04:30:15;5.50;99.90
39621;DHT22;25309;48.686;9.170;2023-12-20T04:32:42;5.50;99.90
39621;DHT22;25309;48.686;9.170;2023-12-20T04:35:09;5.50;99.90
39621;DHT22;25309;48.686;9.170;2023-12-20T04:37:36;5.40;99.90
39621;DHT22;25309;48.686;9.170;2023-12-20T04:40:06;5.40;99.90
39621;DHT22;25309;48.686;9.170;2023-12-20T04:42:35;5.40;99.90
39621;DHT22;25309;48.686;9.170;2023-12-20T04:45:02;5.40;99.90
39621;DHT22;25309;48.686;9.170;2023-12-20T04:47:29;5.50;99.90
39621;DHT22;25309;48.686;9.170;2023-12-20T04:49:56;5.40;99.90
39621;DHT22;25309;48.686;9.170;2023-12-20T04:52:23;5.40;99.90
39621;DHT22;25309;48.686;9.170;2023-12-20T04:54:50;5.40;99.90
39621;DHT22;25309;48.686;9.170;2023-12-20T04:57:19;5.40;99.90
39621;DHT22;25309;48.686;9.170;2023-12-20T04:59:46;5.30;99.90
39621;DHT22;25309;48.686;9.170;2023-12-20T05:02:13;5.30;99.90
39621;DHT22;25309;48.686;9.170;2023-12-20T05:04:40;5.30;99.90
39621;DHT22;25309;48.686;9.170;2023-12-20T05:07:08;5.30;99.90
39621;DHT22;25309;48.686;9.170;2023-12-20T05:09:35;5.30;99.90
39621;DHT22;25309;48.686;9.170;2023-12-20T05:12:02;5.30;99.90
39621;DHT22;25309;48.686;9.170;2023-12-20T05:14:30;5.30;99.90
39621;DHT22;25309;48.686;9.170;2023-12-20T05:16:57;5.30;99.90
39621;DHT22;25309;48.686;9.170;2023-12-20T05:19:24;5.20;99.90
39621;DHT22;25309;48.686;9.170;2023-12-20T05:21:52;5.20;99.90
39621;DHT22;25309;48.686;9.170;2023-12-20T05:24:19;5.30;99.90
39621;DHT22;25309;48.686;9.170;2023-12-20T05:26:46;5.20;99.90
39621;DHT22;25309;48.686;9.170;2023-12-20T05:29:15;5.10;99.90
39621;DHT22;25309;48.686;9.170;2023-12-20T05:31:44;5.10;99.90
39621;DHT22;25309;48.686;9.170;2023-12-20T05:34:11;5.10;99.90
39621;DHT22;25309;48.686;9.170;2023-12-20T05:36:38;5.20;99.90
39621;DHT22;25309;48.686;9.170;2023-12-20T05:39:05;5.10;99.90
39621;DHT22;25309;48.686;9.170;2023-12-20T05:41:34;5.10;99.90
39621;DHT22;25309;48.686;9.170;2023-12-20T05:44:01;5.20;99.90
39621;DHT22;25309;48.686;9.170;2023-12-20T05:46:28;5.20;99.90
39621;DHT22;25309;48.686;9.170;2023-12-20T05:48:56;5.20;99.90
39621;DHT22;25309;48.686;9.170;2023-12-20T05:51:23;5.20;99.90
39621;DHT22;25309;48.686;9.170;2023-12-20T05:53:50;5.20;99.90
39621;DHT22;25309;48.686;9.170;2023-12-20T05:56:17;5.10;99.90
39621;DHT22;25309;48.686;9.170;2023-12-20T05:58:44;5.10;99.90
39621;DHT22;25309;48.686;9.170;2023-12-20T06:01:11;5.10;99.90
39621;DHT22;25309;48.686;9.170;2023-12-20T06:03:41;5.10;99.90
39621;DHT22;25309;48.686;9.170;2023-12-20T06:06:10;5.10;99.90
39621;DHT22;25309;48.686;9.170;2023-12-20T06:08:43;5.10;99.90
39621;DHT22;25309;48.686;9.170;2023-12-20T06:11:10;5.10;99.90
39621;DHT22;25309;48.686;9.170;2023-12-20T06:13:37;5.10;99.90
39621;DHT22;25309;48.686;9.170;2023-12-20T06:16:05;5.10;99.90
39621;DHT22;25309;48.686;9.170;2023-12-20T06:18:34;5.10;99.90
39621;DHT22;25309;48.686;9.170;2023-12-20T06:21:01;5.10;99.90
39621;DHT22;25309;48.686;9.170;2023-12-20T06:23:30;5.10;99.90
39621;DHT22;25309;48.686;9.170;2023-12-20T06:25:57;5.10;99.90
39621;DHT22;25309;48.686;9.170;2023-12-20T06:28:24;5.10;99.90
39621;DHT22;25309;48.686;9.170;2023-12-20T06:30:51;5.20;99.90
39621;DHT22;25309;48.686;9.170;2023-12-20T06:33:19;5.20;99.90
39621;DHT22;25309;48.686;9.170;2023-12-20T06:35:48;5.20;99.90
39621;DHT22;25309;48.686;9.170;2023-12-20T06:38:15;5.20;99.90
39621;DHT22;25309;48.686;9.170;2023-12-20T06:40:43;5.20;99.90
39621;DHT22;25309;48.686;9.170;2023-12-20T06:43:10;5.20;99.90
39621;DHT22;25309;48.686;9.170;2023-12-20T06:45:52;5.10;99.90
39621;DHT22;25309;48.686;9.170;2023-12-20T06:48:19;5.10;99.90
39621;DHT22;25309;48.686;9.170;2023-12-20T06:50:46;5.10;99.90
39621;DHT22;25309;48.686;9.170;2023-12-20T06:53:13;5.10;99.90
39621;DHT22;25309;48.686;9.170;2023-12-20T06:55:40;5.10;99.90
39621;DHT22;25309;48.686;9.170;2023-12-20T06:58:08;5.10;99.90
39621;DHT22;25309;48.686;9.170;2023-12-20T07:00:35;5.10;99.90
39621;DHT22;25309;48.686;9.170;2023-12-20T07:03:03;5.00;99.90
39621;DHT22;25309;48.686;9.170;2023-12-20T07:05:30;5.10;99.90
39621;DHT22;25309;48.686;9.170;2023-12-20T07:07:57;5.10;99.90
39621;DHT22;25309;48.686;9.170;2023-12-20T07:10:24;5.10;99.90
39621;DHT22;25309;48.686;9.170;2023-12-20T07:12:51;5.10;99.90
39621;DHT22;25309;48.686;9.170;2023-12-20T07:15:20;5.10;99.90
39621;DHT22;25309;48.686;9.170;2023-12-20T07:17:47;5.20;99.90
39621;DHT22;25309;48.686;9.170;2023-12-20T07:20:15;5.30;99.90
39621;DHT22;25309;48.686;9.170;2023-12-20T07:22:42;5.30;99.90
39621;DHT22;25309;48.686;9.170;2023-12-20T07:25:08;5.30;99.90
39621;DHT22;25309;48.686;9.170;2023-12-20T07:27:36;5.30;99.90
39621;DHT22;25309;48.686;9.170;2023-12-20T07:30:03;5.30;99.90
39621;DHT22;25309;48.686;9.170;2023-12-20T07:32:31;5.30;99.90
39621;DHT22;25309;48.686;9.170;2023-12-20T07:34:59;5.40;99.90
39621;DHT22;25309;48.686;9.170;2023-12-20T07:37:26;5.40;99.90
39621;DHT22;25309;48.686;9.170;2023-12-20T07:39:53;5.40;99.90
39621;DHT22;25309;48.686;9.170;2023-12-20T07:42:20;5.30;99.90
39621;DHT22;25309;48.686;9.170;2023-12-20T07:44:48;5.30;99.90
39621;DHT22;25309;48.686;9.170;2023-12-20T07:47:15;5.30;99.90
39621;DHT22;25309;48.686;9.170;2023-12-20T07:49:48;5.30;99.90
39621;DHT22;25309;48.686;9.170;2023-12-20T07:52:15;5.30;99.90
39621;DHT22;25309;48.686;9.170;2023-12-20T07:54:42;5.30;99.90
39621;DHT22;25309;48.686;9.170;2023-12-20T07:57:09;5.40;99.90
39621;DHT22;25309;48.686;9.170;2023-12-20T07:59:39;5.50;99.90
39621;DHT22;25309;48.686;9.170;2023-12-20T08:02:06;5.50;99.90
39621;DHT22;25309;48.686;9.170;2023-12-20T08:04:33;5.40;99.90
39621;DHT22;25309;48.686;9.170;2023-12-20T08:07:03;5.30;99.90
39621;DHT22;25309;48.686;9.170;2023-12-20T08:09:30;5.40;99.90
39621;DHT22;25309;48.686;9.170;2023-12-20T08:11:58;5.40;99.90
39621;DHT22;25309;48.686;9.170;2023-12-20T08:14:26;5.40;99.90
39621;DHT22;25309;48.686;9.170;2023-12-20T08:16:53;5.30;99.90
39621;DHT22;25309;48.686;9.170;2023-12-20T08:19:20;5.30;99.90
39621;DHT22;25309;48.686;9.170;2023-12-20T08:21:47;5.30;99.90
39621;DHT22;25309;48.686;9.170;2023-12-20T08:24:15;5.30;99.90
39621;DHT22;25309;48.686;9.170;2023-12-20T08:26:43;5.30;99.90
39621;DHT22;25309;48.686;9.170;2023-12-20T08:29:10;5.30;99.90
39621;DHT22;25309;48.686;9.170;2023-12-20T08:31:39;5.30;99.90
39621;DHT22;25309;48.686;9.170;2023-12-20T08:34:06;5.30;99.90
39621;DHT22;25309;48.686;9.170;2023-12-20T08:36:35;5.20;99.90
39621;DHT22;25309;48.686;9.170;2023-12-20T08:39:02;5.20;99.90
39621;DHT22;25309;48.686;9.170;2023-12-20T08:41:31;5.30;99.90
39621;DHT22;25309;48.686;9.170;2023-12-20T08:43:58;5.20;99.90
39621;DHT22;25309;48.686;9.170;2023-12-20T08:46:25;5.20;99.90
39621;DHT22;25309;48.686;9.170;2023-12-20T08:48:52;5.30;99.90
39621;DHT22;25309;48.686;9.170;2023-12-20T08:51:19;5.30;99.90
39621;DHT22;25309;48.686;9.170;2023-12-20T08:53:48;5.20;99.90
39621;DHT22;25309;48.686;9.170;2023-12-20T08:56:15;5.20;99.90
39621;DHT22;25309;48.686;9.170;2023-12-20T08:58:45;5.20;99.90
39621;DHT22;25309;48.686;9.170;2023-12-20T09:01:12;5.20;99.90
39621;DHT22;25309;48.686;9.170;2023-12-20T09:03:39;5.20;99.90
39621;DHT22;25309;48.686;9.170;2023-12-20T09:06:06;5.20;99.90
39621;DHT22;25309;48.686;9.170;2023-12-20T09:08:33;5.20;99.90
39621;DHT22;25309;48.686;9.170;2023-12-20T09:11:00;5.20;99.90
39621;DHT22;25309;48.686;9.170;2023-12-20T09:13:28;5.20;99.90
39621;DHT22;25309;48.686;9.170;2023-12-20T09:15:57;5.10;99.90
39621;DHT22;25309;48.686;9.170;2023-12-20T09:18:24;5.10;99.90
39621;DHT22;25309;48.686;9.170;2023-12-20T09:20:51;5.10;99.90
39621;DHT22;25309;48.686;9.170;2023-12-20T09:23:18;5.20;99.90
39621;DHT22;25309;48.686;9.170;2023-12-20T09:25:45;5.20;99.90
39621;DHT22;25309;48.686;9.170;2023-12-20T09:28:12;5.20;99.90
39621;DHT22;25309;48.686;9.170;2023-12-20T09:30:39;5.20;99.90
39621;DHT22;25309;48.686;9.170;2023-12-20T09:33:08;5.20;99.90
39621;DHT22;25309;48.686;9.170;2023-12-20T09:35:36;5.20;99.90
39621;DHT22;25309;48.686;9.170;2023-12-20T09:38:04;5.20;99.90
39621;DHT22;25309;48.686;9.170;2023-12-20T09:40:32;5.20;99.90
39621;DHT22;25309;48.686;9.170;2023-12-20T09:43:04;5.10;99.90
39621;DHT22;25309;48.686;9.170;2023-12-20T09:45:32;5.10;99.90
39621;DHT22;25309;48.686;9.170;2023-12-20T09:47:59;5.40;99.90
39621;DHT22;25309;48.686;9.170;2023-12-20T09:50:28;5.90;99.90
39621;DHT22;25309;48.686;9.170;2023-12-20T09:53:01;6.50;99.90
39621;DHT22;25309;48.686;9.170;2023-12-20T09:55:30;7.10;99.90
39621;DHT22;25309;48.686;9.170;2023-12-20T09:57:59;7.70;99.90
39621;DHT22;25309;48.686;9.170;2023-12-20T10:00:27;8.10;99.90
39621;DHT22;25309;48.686;9.170;2023-12-20T10:02:57;8.60;99.90
39621;DHT22;25309;48.686;9.170;2023-12-20T10:05:28;8.80;99.90
39621;DHT22;25309;48.686;9.170;2023-12-20T10:07:56;8.70;99.90
39621;DHT22;25309;48.686;9.170;2023-12-20T10:10:24;8.80;99.90
39621;DHT22;25309;48.686;9.170;2023-12-20T10:13:09;8.90;99.90
39621;DHT22;25309;48.686;9.170;2023-12-20T10:15:37;8.90;99.90
39621;DHT22;25309;48.686;9.170;2023-12-20T10:18:05;8.90;99.90
39621;DHT22;25309;48.686;9.170;2023-12-20T10:20:34;8.90;99.90
39621;DHT22;25309;48.686;9.170;2023-12-20T10:23:01;8.90;99.90
39621;DHT22;25309;48.686;9.170;2023-12-20T10:25:28;9.00;99.90
39621;DHT22;25309;48.686;9.170;2023-12-20T10:28:10;9.10;99.90
39621;DHT22;25309;48.686;9.170;2023-12-20T10:30:38;9.30;99.90
39621;DHT22;25309;48.686;9.170;2023-12-20T10:33:06;9.30;99.90
39621;DHT22;25309;48.686;9.170;2023-12-20T10:35:36;9.40;99.90
39621;DHT22;25309;48.686;9.170;2023-12-20T10:38:05;9.60;99.90
39621;DHT22;25309;48.686;9.170;2023-12-20T10:40:34;9.60;99.90
39621;DHT22;25309;48.686;9.170;2023-12-20T10:43:04;9.60;99.90
39621;DHT22;25309;48.686;9.170;2023-12-20T10:45:31;9.10;99.90
39621;DHT22;25309;48.686;9.170;2023-12-20T10:47:58;8.60;99.90
39621;DHT22;25309;48.686;9.170;2023-12-20T10:50:27;8.30;99.90
39621;DHT22;25309;48.686;9.170;2023-12-20T10:52:56;7.90;99.90
39621;DHT22;25309;48.686;9.170;2023-12-20T10:55:24;7.70;99.90
39621;DHT22;25309;48.686;9.170;2023-12-20T10:57:51;7.60;99.90
39621;DHT22;25309;48.686;9.170;2023-12-20T11:00:21;7.40;99.90
39621;DHT22;25309;48.686;9.170;2023-12-20T11:02:49;7.40;99.90
39621;DHT22;25309;48.686;9.170;2023-12-20T11:05:25;7.40;99.90
39621;DHT22;25309;48.686;9.170;2023-12-20T11:08:00;7.30;99.90
39621;DHT22;25309;48.686;9.170;2023-12-20T11:10:34;7.30;99.90
39621;DHT22;25309;48.686;9.170;2023-12-20T11:13:08;7.20;99.90
39621;DHT22;25309;48.686;9.170;2023-12-20T11:15:39;7.00;99.90
39621;DHT22;25309;48.686;9.170;2023-12-20T11:18:06;6.80;99.90
39621;DHT22;25309;48.686;9.170;2023-12-20T11:20:36;6.70;99.90
39621;DHT22;25309;48.686;9.170;2023-12-20T11:23:06;6.70;99.90
39621;DHT22;25309;48.686;9.170;2023-12-20T11:25:48;6.80;99.90
39621;DHT22;25309;48.686;9.170;2023-12-20T11:28:15;6.70;99.90
39621;DHT22;25309;48.686;9.170;2023-12-20T11:30:48;6.40;99.90
39621;DHT22;25309;48.686;9.170;2023-12-20T11:33:16;6.40;99.90
39621;DHT22;25309;48.686;9.170;2023-12-20T11:35:47;6.30;99.90
39621;DHT22;25309;48.686;9.170;2023-12-20T11:38:16;6.30;99.90
39621;DHT22;25309;48.686;9.170;2023-12-20T11:40:43;6.30;99.90
39621;DHT22;25309;48.686;9.170;2023-12-20T11:43:10;6.30;99.90
39621;DHT22;25309;48.686;9.170;2023-12-20T11:45:37;6.30;99.90
39621;DHT22;25309;48.686;9.170;2023-12-20T11:48:15;6.30;99.90
39621;DHT22;25309;48.686;9.170;2023-12-20T11:50:42;6.30;99.90
39621;DHT22;25309;48.686;9.170;2023-12-20T11:53:10;6.20;99.90
39621;DHT22;25309;48.686;9.170;2023-12-20T11:55:38;6.10;99.90
39621;DHT22;25309;48.686;9.170;2023-12-20T11:58:05;6.10;99.90
39621;DHT22;25309;48.686;9.170;2023-12-20T12:00:32;6.20;99.90
39621;DHT22;25309;48.686;9.170;2023-12-20T12:02:59;6.20;99.90
39621;DHT22;25309;48.686;9.170;2023-12-20T12:05:30;6.20;99.90
39621;DHT22;25309;48.686;9.170;2023-12-20T12:07:58;6.10;99.90
39621;DHT22;25309;48.686;9.170;2023-12-20T12:10:25;6.10;99.90
39621;DHT22;25309;48.686;9.170;2023-12-20T12:12:54;6.00;99.90
39621;DHT22;25309;48.686;9.170;2023-12-20T12:15:21;5.90;99.90
39621;DHT22;25309;48.686;9.170;2023-12-20T12:17:53;5.90;99.90
39621;DHT22;25309;48.686;9.170;2023-12-20T12:20:20;5.80;99.90
39621;DHT22;25309;48.686;9.170;2023-12-20T12:22:57;5.70;99.90
39621;DHT22;25309;48.686;9.170;2023-12-20T12:25:24;5.80;99.90
39621;DHT22;25309;48.686;9.170;2023-12-20T12:27:51;5.80;99.90
39621;DHT22;25309;48.686;9.170;2023-12-20T12:30:20;5.80;99.90
39621;DHT22;25309;48.686;9.170;2023-12-20T12:32:47;5.80;99.90
39621;DHT22;25309;48.686;9.170;2023-12-20T12:35:15;5.80;99.90
39621;DHT22;25309;48.686;9.170;2023-12-20T12:37:41;5.80;99.90
39621;DHT22;25309;48.686;9.170;2023-12-20T12:40:10;5.80;99.90
39621;DHT22;25309;48.686;9.170;2023-12-20T12:42:38;5.80;99.90
39621;DHT22;25309;48.686;9.170;2023-12-20T12:45:06;5.90;99.90
39621;DHT22;25309;48.686;9.170;2023-12-20T12:47:35;5.90;99.90
39621;DHT22;25309;48.686;9.170;2023-12-20T12:50:02;6.00;99.90
39621;DHT22;25309;48.686;9.170;2023-12-20T12:52:30;6.10;99.90
39621;DHT22;25309;48.686;9.170;2023-12-20T12:54:57;6.10;99.90
39621;DHT22;25309;48.686;9.170;2023-12-20T12:57:24;6.10;99.90
39621;DHT22;25309;48.686;9.170;2023-12-20T12:59:51;6.10;99.90
39621;DHT22;25309;48.686;9.170;2023-12-20T13:02:18;6.20;99.90
39621;DHT22;25309;48.686;9.170;2023-12-20T13:04:46;6.20;99.90
39621;DHT22;25309;48.686;9.170;2023-12-20T13:07:14;6.30;99.90
39621;DHT22;25309;48.686;9.170;2023-12-20T13:09:41;6.30;99.90
39621;DHT22;25309;48.686;9.170;2023-12-20T13:12:08;6.20;99.90
39621;DHT22;25309;48.686;9.170;2023-12-20T13:14:35;6.20;99.90
39621;DHT22;25309;48.686;9.170;2023-12-20T13:17:06;6.20;99.90
39621;DHT22;25309;48.686;9.170;2023-12-20T13:19:33;6.10;99.90
39621;DHT22;25309;48.686;9.170;2023-12-20T13:22:01;6.10;99.90
39621;DHT22;25309;48.686;9.170;2023-12-20T13:24:29;6.10;99.90
39621;DHT22;25309;48.686;9.170;2023-12-20T13:26:56;6.10;99.90
39621;DHT22;25309;48.686;9.170;2023-12-20T13:29:24;6.10;99.90
39621;DHT22;25309;48.686;9.170;2023-12-20T13:31:51;6.10;99.90
39621;DHT22;25309;48.686;9.170;2023-12-20T13:34:18;6.10;99.90
39621;DHT22;25309;48.686;9.170;2023-12-20T13:36:46;6.30;99.90
39621;DHT22;25309;48.686;9.170;2023-12-20T13:39:15;6.70;99.90
39621;DHT22;25309;48.686;9.170;2023-12-20T13:41:43;7.20;99.90
39621;DHT22;25309;48.686;9.170;2023-12-20T13:44:10;7.50;99.90
39621;DHT22;25309;48.686;9.170;2023-12-20T13:46:38;7.40;99.90
39621;DHT22;25309;48.686;9.170;2023-12-20T13:49:05;7.20;99.90
39621;DHT22;25309;48.686;9.170;2023-12-20T13:51:32;7.10;99.90
39621;DHT22;25309;48.686;9.170;2023-12-20T13:53:59;6.80;99.90
39621;DHT22;25309;48.686;9.170;2023-12-20T13:56:28;6.70;99.90
39621;DHT22;25309;48.686;9.170;2023-12-20T13:58:55;6.70;99.90
39621;DHT22;25309;48.686;9.170;2023-12-20T14:01:23;6.70;99.90
39621;DHT22;25309;48.686;9.170;2023-12-20T14:03:50;6.60;99.90
39621;DHT22;25309;48.686;9.170;2023-12-20T14:06:17;6.50;99.90
39621;DHT22;25309;48.686;9.170;2023-12-20T14:08:44;6.40;99.90
39621;DHT22;25309;48.686;9.170;2023-12-20T14:11:11;6.30;99.90
39621;DHT22;25309;48.686;9.170;2023-12-20T14:13:41;6.20;99.90
39621;DHT22;25309;48.686;9.170;2023-12-20T14:16:08;6.20;99.90
39621;DHT22;25309;48.686;9.170;2023-12-20T14:18:37;6.10;99.90
39621;DHT22;25309;48.686;9.170;2023-12-20T14:21:04;6.10;99.90
39621;DHT22;25309;48.686;9.170;2023-12-20T14:23:33;6.10;99.90
39621;DHT22;25309;48.686;9.170;2023-12-20T14:26:03;6.00;99.90
39621;DHT22;25309;48.686;9.170;2023-12-20T14:28:30;6.00;99.90
39621;DHT22;25309;48.686;9.170;2023-12-20T14:30:59;6.10;99.90
39621;DHT22;25309;48.686;9.170;2023-12-20T14:33:26;6.00;99.90
39621;DHT22;25309;48.686;9.170;2023-12-20T14:35:53;5.90;99.90
39621;DHT22;25309;48.686;9.170;2023-12-20T14:38:20;5.90;99.90
39621;DHT22;25309;48.686;9.170;2023-12-20T14:40:47;6.00;99.90
39621;DHT22;25309;48.686;9.170;2023-12-20T14:43:14;5.90;99.90
39621;DHT22;25309;48.686;9.170;2023-12-20T14:45:41;5.90;99.90
39621;DHT22;25309;48.686;9.170;2023-12-20T14:48:09;5.80;99.90
39621;DHT22;25309;48.686;9.170;2023-12-20T14:50:36;5.70;99.90
39621;DHT22;25309;48.686;9.170;2023-12-20T14:53:04;5.70;99.90
39621;DHT22;25309;48.686;9.170;2023-12-20T14:55:30;5.70;99.90
39621;DHT22;25309;48.686;9.170;2023-12-20T14:57:58;5.60;99.90
39621;DHT22;25309;48.686;9.170;2023-12-20T15:00:25;5.70;99.90
39621;DHT22;25309;48.686;9.170;2023-12-20T15:02:52;5.60;99.90
39621;DHT22;25309;48.686;9.170;2023-12-20T15:05:22;5.50;99.90
39621;DHT22;25309;48.686;9.170;2023-12-20T15:07:49;5.40;99.90
39621;DHT22;25309;48.686;9.170;2023-12-20T15:10:16;5.20;99.90
39621;DHT22;25309;48.686;9.170;2023-12-20T15:12:46;5.10;99.90
39621;DHT22;25309;48.686;9.170;2023-12-20T15:15:13;5.00;99.90
39621;DHT22;25309;48.686;9.170;2023-12-20T15:17:40;5.00;99.90
39621;DHT22;25309;48.686;9.170;2023-12-20T15:20:08;4.90;99.90
39621;DHT22;25309;48.686;9.170;2023-12-20T15:22:39;4.90;99.90
39621;DHT22;25309;48.686;9.170;2023-12-20T15:25:08;4.90;99.90
39621;DHT22;25309;48.686;9.170;2023-12-20T15:27:36;4.90;99.90
39621;DHT22;25309;48.686;9.170;2023-12-20T15:30:06;4.90;99.90
39621;DHT22;25309;48.686;9.170;2023-12-20T15:32:33;4.90;99.90
39621;DHT22;25309;48.686;9.170;2023-12-20T15:35:04;4.90;99.90
39621;DHT22;25309;48.686;9.170;2023-12-20T15:37:31;4.80;99.90
39621;DHT22;25309;48.686;9.170;2023-12-20T15:40:00;4.80;99.90
39621;DHT22;25309;48.686;9.170;2023-12-20T15:42:32;4.80;99.90
39621;DHT22;25309;48.686;9.170;2023-12-20T15:44:59;4.70;99.90
39621;DHT22;25309;48.686;9.170;2023-12-20T15:47:26;4.60;99.90
39621;DHT22;25309;48.686;9.170;2023-12-20T15:49:53;4.70;99.90